Winnipeg James Armstrong Richardson International Airport
CYWG : now visible

Airfield :











YOU CAN JOIN US ON...

 
LOGIN :

Register | Disclaimer

   EN    FR    IT 

 









Legend :    VFR   Marginal VFR   IFR   Intensive IFR   Very Intensive IFR
Visi :
Ceiling :
>= 8 km
>= 3000ft
5 to 8 km
1000 to 3000 ft
1500m to 5 km
500 to 1000 ft
800 to 1500m
200 to 500 ft
< 800m
< 200 ft
Symbols :   Thunderstorms  Fog  Heavy snow  Heavy precipitations  Wind > 20 kt






- Airport Elevation : 783 ft
- IATA code : YWG


CYWG - Winnipeg James Armstrong Richardson International

CURRENT METAR :
  • 202200Z 35018G26KT 15SM BKN068 BKN250 17/04 A2982 RMK CU5CI1 SLP102 DENSITY ALT 1400FT

EXPIRED METARs :
  • 202100Z CCA 01021G28KT 320V030 15SM BKN060 BKN250 18/03 A2980 RMK CU5CI1 SLP095 DENSITY ALT 1500FT
  • 202000Z 36022G30KT 15SM BKN060 BKN250 19/03 A2978 RMK CU5CI1 SLP088 DENSITY ALT 1600FT

TAF TAF CYWG
Valid from the 20 at 18:00 until the 21 at 18:00 UTC


201739Z 2018/2118 35015G25KT P6SM SCT040 BKN250
TEMPO 2018/2024 BKN040
FM210000 36018G28KT P6SM SCT060
FM211500 32012G22KT P6SM BKN060
TEMPO 2115/2118 P6SM -SHRA RMK NXT FCST BY 210000Z
CZWG FIR / North America



MET'MAP, your aeronautical weather chart ! - Copyright ORBIFLY December 2007 - Disclaimer

ORBIFLY MET'MAP TEAM :

Programming & Development : Alexandra Zaïnal
Concept & original design : Baudouin d'Aumeries
Assistance for programming : Marc-Olivier Méhu
Technical & hardware support : Manuel Goepfert

Contact : metmap@orbifly.com




SOURCES & CREDITS :

   NOAA       Earth
Advisory